map of GOA home
GOA - Airport
Location
City:  Genoa, Liguria, Italy
Near (Alt.):Genova
Name:Genoa Cristoforo Colombo
Old (Alt.):Sestri
ICAO:LIMJ
IATA:GOA

Details
Type:Airport (Aerodrome, Airfield)
Use:Public/Civil, International (customs port of entry)
Latitude:4424'48"N (44.413333)
Longitude:850'15"E (8.837500)
Datum:WGS 1984
Elevation:13 ft (4 m)
Variation:2.35E (WMM2015 magnetic declination)
0.11 annual change
Runways:1
Longest:9564 × 148 ft (2915 × 45 m), paved

Time
Time Zone:UTC+1 (DST+2)
Local Time:

Weather
METAR:LIMJ 191620Z 13010KT 9999 FEW018 FEW027TCU 26/22 Q1012
TAF:LIMJ 191100Z 1912/2012 15010KT 9999 SCT025
BECMG 1920/1922 01005KT
BECMG 2009/2011 03015KT

Related Locations
Nearby:
Farthest:CHT: 12174 mi / 19592 km
Waitangi [Tuuta], CIT, NZ

Find:

   beyond  
but within

Other Information
Maps:
NOTAMs:
Links:
Sources:

  
flag of Italy
flag of Liguria
flag of Genoa
  

Sectional Chart

Flight Planning
at skyvector.com

Satellite Image

Google Maps Satellite view

 

Copyright © 2004-2017 Karl L. Swartz. All rights reserved.
The Great Circle Mapper name and logo are trademarks of the Great Circle Mapper.
All other trademarks mentioned herein belong to their respective owners.
Please see credits for attibutions and further copyright information.

  Follow gcmap on Facebook Follow gcmap on Twitter Follow gcmap on Google+ GCmap on LinkedIn

hCard Microformat

Geo Microformat